Main page
METAR-TAF:

METAR-TAF

Airports :

Pisa, Italy

Pisa International Airport

latitude: 43-41N, longitude: 010-23E, elevation: 2 m

Current weather observation

The report was made 28 minutes ago, at 09:15 UTC
Wind 7 kt from the East
Temperature 10°C
Humidity 76%
Pressure 1021 hPa
Visibility 10 km or more
Scattered clouds at a height of 3500 ft

METAR: LIRP 230915Z 10007KT 9999 SCT035 10/06 Q1021 NOSIG

Time: 10:43 (09:43 UTC)

Forecast

The report was made 4 hours and 43 minutes ago, at 05:00 UTC
Forecast valid from 23 at 06 UTC to 24 at 06 UTC
Wind 5 kt from the East/Southeast
Visibility 10 km or more
Broken clouds at a height of 3000 ft
Becoming
from 23 at 07 UTC to 23 at 09 UTC
Visibility 10 km or more
no clouds below 1500 m and no cumulonimbus
Probability 30% :
Temporary
from 24 at 00 UTC to 24 at 07 UTC
Visibility: 4000 m
mist

TAF: LIRP 230500Z 2306/2406 12005KT 9999 BKN030 BECMG 2307/2309 CAVOK PROB30 TEMPO 2400/2407 4000 BR

Weather observations and forecasts of more than 4000 airports (METAR and TAF reports).

The available stations are represented by yellow and red dots on the map.

Hover mouse over dot to see the name of the station.

Then click to see weather observations and forecasts.

To change the map : click on the green buttons with a black cross to zoom in, on the green button with a dash to zoom out, or on the green arrows for adjacent maps.


METAR-TAF: